Time;durP1;ratioP1;P1;durP2;ratioP2;P2;SDS_P1;SDS_P2;PMS_P1;PMS_P2;Temp;Humidity;BMP_temperature;BMP_pressure;BME280_temperature;BME280_humidity;BME280_pressure;Samples;Min_cycle;Max_cycle;Signal;HPM_P1;HPM_P2
2023/12/11 00:02:10;;;;;;;;;;;9.70;93.60;;;;;;5112501;28;19911;-75
2023/12/11 00:04:35;;;;;;;;;;;9.80;93.60;;;;;;5094147;28;19907;-75
2023/12/11 00:07:01;;;;;;;;;;;9.90;93.60;;;;;;5077239;28;19908;-74
2023/12/11 00:09:26;;;;;;;;;;;10.00;93.50;;;;;;5112212;28;19923;-74
2023/12/11 00:11:52;;;;;;;;;;;10.00;93.50;;;;;;5093571;28;19915;-75
2023/12/11 00:14:17;;;;;;;;;;;10.00;93.50;;;;;;5094067;28;19915;-74
2023/12/11 00:16:45;;;;;;;;;;;10.00;93.40;;;;;;5093825;28;19922;-74
2023/12/11 00:19:11;;;;;;;;;;;10.10;93.40;;;;;;5094145;28;19977;-74
2023/12/11 00:21:36;;;;;;;;;;;10.10;93.40;;;;;;5112159;28;19929;-75
2023/12/11 00:24:02;;;;;;;;;;;10.10;93.40;;;;;;5112194;28;20386;-75
2023/12/11 00:26:28;;;;;;;;;;;10.10;93.40;;;;;;5111949;28;20331;-75
2023/12/11 00:28:54;;;;;;;;;;;10.10;93.40;;;;;;5093798;28;20007;-75
2023/12/11 00:31:19;;;;;;;;;;;10.10;93.50;;;;;;5093770;28;20362;-75
2023/12/11 00:33:45;;;;;;;;;;;10.20;93.50;;;;;;5111975;28;19907;-75
2023/12/11 00:36:10;;;;;;;;;;;10.20;93.50;;;;;;5111890;28;19958;-76
2023/12/11 00:38:36;;;;;;;;;;;10.20;93.50;;;;;;5111954;28;19912;-75
2023/12/11 00:41:01;;;;;;;;;;;10.20;93.50;;;;;;5093655;28;20407;-75
2023/12/11 00:43:27;;;;;;;;;;;10.30;93.50;;;;;;5093629;28;20310;-75
2023/12/11 00:45:52;;;;;;;;;;;10.30;93.50;;;;;;5093621;28;19907;-75
2023/12/11 00:48:18;;;;;;;;;;;10.30;93.50;;;;;;5093730;28;19915;-75
2023/12/11 00:50:44;;;;;;;;;;;10.30;93.50;;;;;;5076772;28;19927;-76
2023/12/11 00:53:09;;;;;;;;;;;10.30;93.50;;;;;;5111906;28;20363;-74
2023/12/11 00:55:35;;;;;;;;;;;10.30;93.50;;;;;;5111500;28;20406;-75
2023/12/11 00:58:00;;;;;;;;;;;10.40;93.50;;;;;;5111795;28;19908;-75
2023/12/11 01:00:26;;;;;;;;;;;10.40;93.50;;;;;;5111794;28;19981;-75
2023/12/11 01:02:52;;;;;;;;;;;10.30;93.40;;;;;;5093537;28;19908;-75
2023/12/11 01:05:17;;;;;;;;;;;10.30;93.40;;;;;;5111666;28;19907;-74
2023/12/11 01:07:43;;;;;;;;;;;10.20;93.40;;;;;;5093585;28;19912;-75
2023/12/11 01:10:08;;;;;;;;;;;10.20;93.40;;;;;;5111631;28;19994;-75
2023/12/11 01:12:35;;;;;;;;;;;10.20;93.40;;;;;;5093406;28;20016;-75
2023/12/11 01:15:01;;;;;;;;;;;10.20;93.40;;;;;;5076738;28;19907;-75
2023/12/11 01:17:26;;;;;;;;;;;10.20;93.40;;;;;;5093394;28;19922;-75
2023/12/11 01:19:52;;;;;;;;;;;10.20;93.50;;;;;;5093428;28;19916;-76
2023/12/11 01:22:18;;;;;;;;;;;10.20;93.50;;;;;;5113891;28;20320;-75
2023/12/11 01:24:43;;;;;;;;;;;10.20;93.50;;;;;;5115209;28;20310;-75
2023/12/11 01:27:09;;;;;;;;;;;10.20;93.50;;;;;;5097285;28;19911;-75
2023/12/11 01:29:34;;;;;;;;;;;10.20;93.50;;;;;;5097031;28;19919;-75
2023/12/11 01:32:00;;;;;;;;;;;10.20;93.50;;;;;;5115386;28;19911;-75
2023/12/11 01:34:25;;;;;;;;;;;10.30;93.50;;;;;;5115353;28;19911;-76
2023/12/11 01:36:51;;;;;;;;;;;10.20;93.40;;;;;;5096894;28;19916;-75
2023/12/11 01:39:16;;;;;;;;;;;10.20;93.40;;;;;;5115221;28;19915;-75
2023/12/11 01:41:42;;;;;;;;;;;10.20;93.40;;;;;;5096990;28;19935;-75
2023/12/11 01:44:07;;;;;;;;;;;10.10;93.40;;;;;;5115183;28;19907;-75
2023/12/11 01:46:33;;;;;;;;;;;10.10;93.40;;;;;;5115053;28;19908;-75
2023/12/11 01:48:59;;;;;;;;;;;10.10;93.40;;;;;;5096958;28;20279;-75
2023/12/11 01:51:25;;;;;;;;;;;10.10;93.40;;;;;;5079739;28;20359;-75
2023/12/11 01:53:51;;;;;;;;;;;10.10;93.40;;;;;;5115028;28;20030;-75
2023/12/11 01:56:17;;;;;;;;;;;10.00;93.40;;;;;;5079572;28;19923;-76
2023/12/11 01:58:43;;;;;;;;;;;10.00;93.40;;;;;;5114876;28;20002;-76
2023/12/11 02:01:10;;;;;;;;;;;10.00;93.40;;;;;;5096639;28;19957;-76
2023/12/11 02:03:36;;;;;;;;;;;10.00;93.40;;;;;;5114856;28;20044;-76
2023/12/11 02:06:02;;;;;;;;;;;10.00;93.50;;;;;;5114774;28;19945;-75
2023/12/11 02:08:27;;;;;;;;;;;10.00;93.50;;;;;;5096518;28;20158;-75
2023/12/11 02:10:53;;;;;;;;;;;10.00;93.50;;;;;;5096425;28;19908;-75
2023/12/11 02:13:20;;;;;;;;;;;10.00;93.50;;;;;;5096346;28;19946;-75
2023/12/11 02:15:46;;;;;;;;;;;10.00;93.40;;;;;;5114492;28;19904;-75
2023/12/11 02:18:13;;;;;;;;;;;10.00;93.50;;;;;;5079377;28;20415;-76
2023/12/11 02:20:39;;;;;;;;;;;10.00;93.40;;;;;;5096487;28;19908;-75
2023/12/11 02:23:08;;;;;;;;;;;10.00;93.50;;;;;;5096129;28;19904;-75
2023/12/11 02:25:35;;;;;;;;;;;10.10;93.50;;;;;;5092435;28;19923;-75
2023/12/11 02:28:02;;;;;;;;;;;10.10;93.70;;;;;;5094309;28;20333;-75
2023/12/11 02:30:29;;;;;;;;;;;10.10;93.50;;;;;;5092727;28;19935;-76
2023/12/11 02:32:54;;;;;;;;;;;10.10;93.50;;;;;;5093162;28;19915;-75
2023/12/11 02:35:20;;;;;;;;;;;10.10;93.40;;;;;;5092717;28;19904;-76
2023/12/11 02:37:45;;;;;;;;;;;10.10;93.50;;;;;;5092522;28;19924;-75
2023/12/11 02:40:11;;;;;;;;;;;10.10;93.50;;;;;;5093772;28;19908;-75
2023/12/11 02:42:37;;;;;;;;;;;10.10;93.60;;;;;;5093716;28;20287;-76
2023/12/11 02:45:02;;;;;;;;;;;10.10;93.50;;;;;;5092356;28;20015;-75
2023/12/11 02:47:28;;;;;;;;;;;10.20;93.50;;;;;;5092397;28;19908;-75
2023/12/11 02:49:53;;;;;;;;;;;10.10;93.50;;;;;;5093535;28;19908;-75
2023/12/11 02:52:19;;;;;;;;;;;10.10;93.50;;;;;;5092200;28;19908;-75
2023/12/11 02:54:45;;;;;;;;;;;10.10;93.50;;;;;;5093414;28;19950;-75
2023/12/11 02:57:10;;;;;;;;;;;10.10;93.50;;;;;;5091959;28;19916;-75
2023/12/11 02:59:36;;;;;;;;;;;10.10;93.50;;;;;;5075175;28;20416;-75
2023/12/11 03:02:01;;;;;;;;;;;10.10;93.50;;;;;;5092099;28;19908;-75
2023/12/11 03:04:27;;;;;;;;;;;10.10;93.50;;;;;;5092169;28;20298;-76
2023/12/11 03:06:52;;;;;;;;;;;10.10;93.50;;;;;;5093132;28;19959;-76
2023/12/11 03:09:18;;;;;;;;;;;10.10;93.50;;;;;;5091887;28;19918;-76
2023/12/11 03:11:43;;;;;;;;;;;10.10;93.50;;;;;;5091769;28;19914;-75
2023/12/11 03:14:09;;;;;;;;;;;10.10;93.50;;;;;;5074900;28;19947;-75
2023/12/11 03:16:35;;;;;;;;;;;10.00;93.40;;;;;;5074564;28;20414;-75
2023/12/11 03:19:00;;;;;;;;;;;10.00;93.40;;;;;;5091614;28;19912;-75
2023/12/11 03:21:26;;;;;;;;;;;9.90;93.50;;;;;;5091705;28;20030;-75
2023/12/11 03:23:51;;;;;;;;;;;9.90;93.50;;;;;;5091623;28;19908;-75
2023/12/11 03:26:17;;;;;;;;;;;9.80;93.50;;;;;;5091241;28;19920;-76
2023/12/11 03:28:42;;;;;;;;;;;9.70;93.50;;;;;;5092836;28;19914;-76
2023/12/11 03:31:08;;;;;;;;;;;9.60;93.50;;;;;;5074514;28;19914;-75
2023/12/11 03:33:33;;;;;;;;;;;9.60;93.60;;;;;;5091426;28;19908;-75
2023/12/11 03:35:59;;;;;;;;;;;9.60;93.70;;;;;;5091216;28;19912;-75
2023/12/11 03:38:24;;;;;;;;;;;9.70;93.70;;;;;;5091362;28;19969;-75
2023/12/11 03:40:50;;;;;;;;;;;9.70;93.60;;;;;;5074283;28;19912;-75
2023/12/11 03:43:16;;;;;;;;;;;9.70;93.60;;;;;;5092455;28;20360;-75
2023/12/11 03:45:41;;;;;;;;;;;9.70;93.60;;;;;;5090048;28;19908;-75
2023/12/11 03:48:07;;;;;;;;;;;9.70;93.60;;;;;;5092293;28;19919;-76
2023/12/11 03:50:33;;;;;;;;;;;9.80;93.60;;;;;;5092332;28;20002;-75
2023/12/11 03:52:58;;;;;;;;;;;9.80;93.50;;;;;;5090951;28;20049;-75
2023/12/11 03:55:24;;;;;;;;;;;9.80;93.50;;;;;;5092218;28;19908;-75
2023/12/11 03:57:49;;;;;;;;;;;9.70;93.50;;;;;;5090858;28;19908;-75
2023/12/11 04:00:15;;;;;;;;;;;9.80;93.60;;;;;;5092171;28;20314;-75
2023/12/11 04:02:41;;;;;;;;;;;9.80;93.50;;;;;;5090847;28;19931;-75
2023/12/11 04:05:06;;;;;;;;;;;9.80;93.50;;;;;;5092073;28;19912;-75
2023/12/11 04:07:32;;;;;;;;;;;9.70;93.50;;;;;;5092162;28;19908;-76
2023/12/11 04:09:57;;;;;;;;;;;9.70;93.40;;;;;;5092091;28;20405;-76
2023/12/11 04:12:23;;;;;;;;;;;9.60;93.40;;;;;;5090714;28;19908;-75
2023/12/11 04:14:48;;;;;;;;;;;9.60;93.50;;;;;;5092024;28;19908;-76
2023/12/11 04:17:14;;;;;;;;;;;9.60;93.50;;;;;;5073738;28;19951;-75
2023/12/11 04:19:40;;;;;;;;;;;9.70;93.50;;;;;;5090586;28;19907;-75
2023/12/11 04:22:05;;;;;;;;;;;9.60;93.50;;;;;;5090657;28;19912;-75
2023/12/11 04:24:31;;;;;;;;;;;9.60;93.50;;;;;;5091723;28;19904;-75
2023/12/11 04:26:56;;;;;;;;;;;9.70;93.50;;;;;;5073411;28;19926;-75
2023/12/11 04:29:22;;;;;;;;;;;9.70;93.50;;;;;;5090398;28;19908;-75
2023/12/11 04:31:47;;;;;;;;;;;9.70;93.50;;;;;;5073494;28;19908;-76
2023/12/11 04:34:13;;;;;;;;;;;9.70;93.50;;;;;;5090356;28;19965;-76
2023/12/11 04:36:40;;;;;;;;;;;9.70;93.50;;;;;;5091443;28;19965;-76
2023/12/11 04:39:06;;;;;;;;;;;9.70;93.50;;;;;;5091611;28;19955;-75
2023/12/11 04:41:32;;;;;;;;;;;9.70;93.50;;;;;;5091996;28;20368;-75
2023/12/11 04:43:57;;;;;;;;;;;9.70;93.50;;;;;;5090282;28;20352;-75
2023/12/11 04:46:23;;;;;;;;;;;9.70;93.50;;;;;;5091441;28;20265;-75
2023/12/11 04:48:48;;;;;;;;;;;9.70;93.40;;;;;;5090339;28;20020;-75
2023/12/11 04:51:14;;;;;;;;;;;9.60;93.40;;;;;;5073293;28;19918;-75
2023/12/11 04:53:39;;;;;;;;;;;9.60;93.50;;;;;;5091710;28;19904;-75
2023/12/11 04:56:06;;;;;;;;;;;9.60;93.50;;;;;;5073242;28;19911;-76
2023/12/11 04:58:32;;;;;;;;;;;9.50;93.50;;;;;;5094131;28;19904;-75
2023/12/11 05:00:57;;;;;;;;;;;9.50;93.50;;;;;;5095595;28;20007;-75
2023/12/11 05:03:23;;;;;;;;;;;9.60;93.50;;;;;;5094390;28;20356;-75
2023/12/11 05:05:48;;;;;;;;;;;9.60;93.50;;;;;;5095388;28;20355;-75
2023/12/11 05:08:14;;;;;;;;;;;9.60;93.50;;;;;;5095524;28;20352;-75
2023/12/11 05:10:39;;;;;;;;;;;9.60;93.50;;;;;;5094046;28;20356;-75
2023/12/11 05:13:05;;;;;;;;;;;9.60;93.50;;;;;;5095489;28;19908;-75
2023/12/11 05:15:30;;;;;;;;;;;9.60;93.50;;;;;;5077108;28;19961;-76
2023/12/11 05:17:56;;;;;;;;;;;9.60;93.50;;;;;;5077005;28;19916;-76
2023/12/11 05:20:21;;;;;;;;;;;9.60;93.40;;;;;;5094049;28;20002;-76
2023/12/11 05:22:47;;;;;;;;;;;9.50;93.40;;;;;;5094047;28;19912;-75
2023/12/11 05:25:12;;;;;;;;;;;9.50;93.50;;;;;;5100283;28;19923;-75
2023/12/11 05:27:38;;;;;;;;;;;9.50;93.50;;;;;;5115921;28;20317;-76
2023/12/11 05:30:05;;;;;;;;;;;9.50;93.50;;;;;;5115491;28;19915;-75
2023/12/11 05:32:30;;;;;;;;;;;9.50;93.50;;;;;;5115543;28;19908;-75
2023/12/11 05:34:56;;;;;;;;;;;9.40;93.50;;;;;;5097154;28;20378;-76
2023/12/11 05:37:21;;;;;;;;;;;9.40;93.40;;;;;;5115372;28;19914;-75
2023/12/11 05:39:47;;;;;;;;;;;9.40;93.40;;;;;;5080096;28;20003;-76
2023/12/11 05:42:13;;;;;;;;;;;9.40;93.50;;;;;;5096643;28;19911;-75
2023/12/11 05:44:38;;;;;;;;;;;9.40;93.50;;;;;;5115118;28;19922;-76
2023/12/11 05:47:04;;;;;;;;;;;9.40;93.50;;;;;;5097029;28;19998;-75
2023/12/11 05:49:30;;;;;;;;;;;9.40;93.50;;;;;;5114946;28;19961;-76
2023/12/11 05:51:56;;;;;;;;;;;9.40;93.50;;;;;;5115098;28;19960;-75
2023/12/11 05:54:21;;;;;;;;;;;9.40;93.40;;;;;;5114975;28;20325;-75
2023/12/11 05:56:47;;;;;;;;;;;9.30;93.40;;;;;;5115056;28;19912;-75
2023/12/11 05:59:13;;;;;;;;;;;9.30;93.40;;;;;;5096507;28;20175;-75
2023/12/11 06:01:38;;;;;;;;;;;9.20;93.30;;;;;;5096564;28;19916;-76
2023/12/11 06:04:04;;;;;;;;;;;9.10;93.40;;;;;;5096484;28;19908;-75
2023/12/11 06:06:29;;;;;;;;;;;9.10;93.40;;;;;;5096470;28;19908;-75
2023/12/11 06:08:55;;;;;;;;;;;9.00;93.40;;;;;;5113562;28;19919;-75
2023/12/11 06:11:20;;;;;;;;;;;9.00;93.40;;;;;;5096508;28;20424;-75
2023/12/11 06:13:46;;;;;;;;;;;9.00;93.40;;;;;;5096440;28;19911;-75
2023/12/11 06:16:13;;;;;;;;;;;8.90;93.40;;;;;;5095992;28;20138;-75
2023/12/11 06:18:39;;;;;;;;;;;8.90;93.40;;;;;;5079479;28;20252;-75
2023/12/11 06:21:04;;;;;;;;;;;8.90;93.50;;;;;;5114338;28;19903;-76
2023/12/11 06:23:30;;;;;;;;;;;8.80;93.40;;;;;;5095984;28;19908;-75
2023/12/11 06:25:56;;;;;;;;;;;8.80;93.40;;;;;;5095876;28;20072;-76
2023/12/11 06:28:21;;;;;;;;;;;8.80;93.40;;;;;;5095910;28;20394;-75
2023/12/11 06:30:47;;;;;;;;;;;8.80;93.40;;;;;;5096006;28;20347;-75
2023/12/11 06:33:12;;;;;;;;;;;8.70;93.40;;;;;;5095652;28;19930;-75
2023/12/11 06:35:38;;;;;;;;;;;8.70;93.40;;;;;;5078781;28;19907;-75
2023/12/11 06:38:03;;;;;;;;;;;8.70;93.40;;;;;;5113775;28;19912;-75
2023/12/11 06:40:29;;;;;;;;;;;8.70;93.50;;;;;;5095598;28;19908;-75
2023/12/11 06:42:55;;;;;;;;;;;8.70;93.40;;;;;;5078739;28;19912;-75
2023/12/11 06:45:20;;;;;;;;;;;8.70;93.40;;;;;;5095670;28;19943;-75
2023/12/11 06:47:46;;;;;;;;;;;8.80;93.40;;;;;;5095534;28;20321;-75
2023/12/11 06:50:12;;;;;;;;;;;8.70;93.40;;;;;;5095277;28;19954;-75
2023/12/11 06:52:38;;;;;;;;;;;8.70;93.30;;;;;;5095201;28;19908;-75
2023/12/11 06:55:04;;;;;;;;;;;8.70;93.30;;;;;;5113534;28;19912;-75
2023/12/11 06:57:29;;;;;;;;;;;8.70;93.40;;;;;;5095205;28;19912;-75
2023/12/11 06:59:55;;;;;;;;;;;8.70;93.40;;;;;;5095030;28;19919;-75
2023/12/11 07:02:20;;;;;;;;;;;8.80;93.40;;;;;;5094770;28;20441;-75
2023/12/11 07:04:46;;;;;;;;;;;8.80;93.30;;;;;;5113341;28;20275;-75
2023/12/11 07:07:11;;;;;;;;;;;8.80;93.40;;;;;;5095152;28;19911;-75
2023/12/11 07:09:37;;;;;;;;;;;8.70;93.30;;;;;;5095065;28;19939;-77
2023/12/11 07:12:02;;;;;;;;;;;8.80;93.30;;;;;;5078280;28;19914;-77
2023/12/11 07:14:28;;;;;;;;;;;8.80;93.30;;;;;;5094881;28;19989;-77
2023/12/11 07:16:54;;;;;;;;;;;8.80;93.30;;;;;;5113307;28;19912;-77
2023/12/11 07:19:19;;;;;;;;;;;8.70;93.30;;;;;;5112815;28;19907;-77
2023/12/11 07:21:45;;;;;;;;;;;8.70;93.20;;;;;;5113300;28;19907;-77
2023/12/11 07:24:11;;;;;;;;;;;8.50;93.10;;;;;;5094810;28;19984;-77
2023/12/11 07:26:36;;;;;;;;;;;8.50;93.20;;;;;;5094534;28;20332;-77
2023/12/11 07:29:02;;;;;;;;;;;8.30;93.10;;;;;;5113543;28;19931;-77
2023/12/11 07:31:28;;;;;;;;;;;8.20;93.10;;;;;;5077569;28;20003;-77
2023/12/11 07:33:53;;;;;;;;;;;8.20;93.20;;;;;;5112866;28;19908;-77
2023/12/11 07:36:19;;;;;;;;;;;8.10;93.20;;;;;;5112604;28;20026;-77
2023/12/11 07:38:45;;;;;;;;;;;8.00;93.20;;;;;;5094319;28;20423;-78
2023/12/11 07:41:11;;;;;;;;;;;7.90;93.20;;;;;;5112843;28;20002;-77
2023/12/11 07:43:37;;;;;;;;;;;7.90;93.20;;;;;;5112924;28;19904;-77
2023/12/11 07:46:02;;;;;;;;;;;7.90;93.30;;;;;;5112593;28;19949;-77
2023/12/11 07:48:28;;;;;;;;;;;7.80;93.30;;;;;;5094291;28;19907;-77
2023/12/11 07:50:54;;;;;;;;;;;7.90;93.30;;;;;;5112137;28;19998;-77
2023/12/11 07:53:19;;;;;;;;;;;7.90;93.30;;;;;;5112443;28;19911;-78
2023/12/11 07:55:45;;;;;;;;;;;8.00;93.30;;;;;;5093854;28;19965;-78
2023/12/11 07:58:10;;;;;;;;;;;8.00;93.30;;;;;;5077113;28;19907;-77
2023/12/11 08:00:37;;;;;;;;;;;8.00;93.20;;;;;;5077358;28;19958;-77
2023/12/11 08:03:04;;;;;;;;;;;8.00;93.20;;;;;;5077086;28;20278;-77
2023/12/11 08:05:29;;;;;;;;;;;8.10;93.30;;;;;;5093507;28;19907;-78
2023/12/11 08:07:55;;;;;;;;;;;8.10;93.20;;;;;;5111917;28;19980;-77
2023/12/11 08:10:21;;;;;;;;;;;8.10;93.20;;;;;;5111899;28;20363;-77
2023/12/11 08:12:51;;;;;;;;;;;8.00;93.10;;;;;;5111893;28;19908;-77
2023/12/11 08:15:16;;;;;;;;;;;7.90;93.10;;;;;;5111938;28;20371;-77
2023/12/11 08:17:42;;;;;;;;;;;7.80;93.00;;;;;;5111788;28;19964;-77
2023/12/11 08:20:09;;;;;;;;;;;7.70;93.10;;;;;;5093415;28;19908;-77
2023/12/11 08:22:35;;;;;;;;;;;7.60;93.10;;;;;;5093564;28;19939;-77
2023/12/11 08:25:00;;;;;;;;;;;7.50;93.10;;;;;;5111556;28;20371;-77
2023/12/11 08:27:26;;;;;;;;;;;7.50;93.10;;;;;;5111945;28;19904;-77
2023/12/11 08:29:51;;;;;;;;;;;7.40;93.10;;;;;;5093544;28;19907;-77
2023/12/11 08:32:17;;;;;;;;;;;7.40;93.10;;;;;;5111259;28;20064;-77
2023/12/11 08:34:42;;;;;;;;;;;7.40;93.10;;;;;;5111713;28;19912;-77
2023/12/11 08:37:08;;;;;;;;;;;7.30;93.20;;;;;;5076416;28;19912;-77
2023/12/11 08:39:33;;;;;;;;;;;7.30;93.30;;;;;;5112057;28;20363;-77
2023/12/11 08:41:59;;;;;;;;;;;7.30;93.20;;;;;;5111544;28;19908;-77
2023/12/11 08:44:25;;;;;;;;;;;7.30;93.10;;;;;;5093281;28;19908;-78
2023/12/11 08:46:50;;;;;;;;;;;7.30;93.20;;;;;;5093380;28;20389;-77
2023/12/11 08:49:16;;;;;;;;;;;7.20;93.20;;;;;;5093275;28;19912;-77
2023/12/11 08:51:42;;;;;;;;;;;7.20;93.20;;;;;;5111676;28;19908;-77
2023/12/11 08:54:07;;;;;;;;;;;7.20;93.20;;;;;;5076131;28;19957;-78
2023/12/11 08:56:33;;;;;;;;;;;7.30;93.20;;;;;;5092947;28;19916;-77
2023/12/11 08:58:59;;;;;;;;;;;7.30;93.20;;;;;;5111494;28;19915;-77
2023/12/11 09:01:24;;;;;;;;;;;7.30;93.30;;;;;;5111218;28;20003;-77
2023/12/11 09:03:50;;;;;;;;;;;7.40;93.40;;;;;;5092497;28;20304;-78
2023/12/11 09:06:15;;;;;;;;;;;7.60;93.70;;;;;;5111391;28;20336;-77
2023/12/11 09:08:41;;;;;;;;;;;7.80;93.80;;;;;;5111456;28;19994;-77
2023/12/11 09:11:07;;;;;;;;;;;8.10;93.80;;;;;;5111362;28;20386;-78
2023/12/11 09:13:32;;;;;;;;;;;8.30;93.60;;;;;;5110776;28;19949;-77
2023/12/11 09:15:58;;;;;;;;;;;8.40;93.50;;;;;;5110524;28;19919;-77
2023/12/11 09:18:23;;;;;;;;;;;8.60;93.60;;;;;;5111457;28;19915;-77
2023/12/11 09:20:49;;;;;;;;;;;8.70;93.30;;;;;;5111057;28;19931;-77
2023/12/11 09:23:15;;;;;;;;;;;8.70;93.60;;;;;;5110977;28;19912;-77
2023/12/11 09:25:41;;;;;;;;;;;8.70;93.40;;;;;;5089059;28;19920;-77
2023/12/11 09:28:06;;;;;;;;;;;8.80;93.40;;;;;;5090434;28;19908;-77
2023/12/11 09:30:32;;;;;;;;;;;8.90;93.40;;;;;;5090303;28;20325;-77
2023/12/11 09:32:57;;;;;;;;;;;9.00;93.60;;;;;;5090488;28;20284;-77
2023/12/11 09:35:23;;;;;;;;;;;9.10;93.50;;;;;;5090100;28;20371;-77
2023/12/11 09:37:48;;;;;;;;;;;9.10;93.40;;;;;;5090100;28;19908;-77
2023/12/11 09:40:14;;;;;;;;;;;9.10;93.40;;;;;;5090217;28;19915;-74
2023/12/11 09:42:41;;;;;;;;;;;9.20;93.50;;;;;;5091310;28;19908;-77
2023/12/11 09:45:08;;;;;;;;;;;9.30;93.50;;;;;;5093516;28;19958;-77
2023/12/11 09:47:43;;;;;;;;;;;9.60;93.70;;;;;;5092732;28;19966;-76
2023/12/11 09:50:09;;;;;;;;;;;9.80;93.70;;;;;;5092134;28;19904;-77
2023/12/11 09:52:44;;;;;;;;;;;9.90;93.50;;;;;;5096726;28;20408;-76
2023/12/11 09:55:10;;;;;;;;;;;9.80;93.10;;;;;;5095630;28;19908;-75
2023/12/11 09:57:40;;;;;;;;;;;9.60;93.00;;;;;;5094723;28;19922;-75
2023/12/11 10:00:06;;;;;;;;;;;9.50;93.30;;;;;;5092190;28;19908;-76
2023/12/11 10:02:31;;;;;;;;;;;9.90;94.10;;;;;;5093029;28;19954;-76
2023/12/11 10:05:00;;;;;;;;;;;10.50;94.40;;;;;;5090598;28;20314;-76
2023/12/11 10:07:25;;;;;;;;;;;11.20;94.40;;;;;;5086858;28;20257;-75
2023/12/11 10:09:51;;;;;;;;;;;11.70;94.30;;;;;;5087211;28;19919;-74
2023/12/11 10:12:16;;;;;;;;;;;12.30;94.30;;;;;;5094492;28;19912;-74
2023/12/11 10:14:42;;;;;;;;;;;12.80;94.20;;;;;;5091936;28;19915;-74
2023/12/11 10:17:26;;;;;;;;;;;13.20;94.00;;;;;;5092794;28;19907;-74
2023/12/11 10:19:51;;;;;;;;;;;13.50;94.00;;;;;;5091435;28;19930;-74
2023/12/11 10:22:27;;;;;;;;;;;13.90;93.90;;;;;;5091830;28;19956;-74
2023/12/11 10:24:53;;;;;;;;;;;14.20;94.00;;;;;;5092133;28;19908;-74
2023/12/11 10:27:22;;;;;;;;;;;14.50;94.00;;;;;;5110931;28;19927;-74
2023/12/11 10:29:47;;;;;;;;;;;14.80;94.00;;;;;;5111884;28;19960;-74
2023/12/11 10:32:13;;;;;;;;;;;15.00;94.00;;;;;;5111971;28;19924;-74
2023/12/11 10:34:43;;;;;;;;;;;15.20;94.00;;;;;;5111981;28;19911;-74
2023/12/11 10:37:10;;;;;;;;;;;15.50;94.00;;;;;;5112096;28;19911;-74
2023/12/11 10:39:36;;;;;;;;;;;15.70;94.10;;;;;;5113649;28;19964;-74
2023/12/11 10:42:14;;;;;;;;;;;15.90;94.10;;;;;;5094768;28;20002;-74
2023/12/11 10:44:40;;;;;;;;;;;16.10;94.00;;;;;;5113884;28;19918;-74
2023/12/11 10:47:07;;;;;;;;;;;16.20;94.00;;;;;;5095475;28;19912;-74
2023/12/11 10:49:33;;;;;;;;;;;16.40;94.00;;;;;;5095197;28;20256;-74
2023/12/11 10:51:58;;;;;;;;;;;16.50;94.10;;;;;;5113468;28;19908;-74
2023/12/11 10:54:24;;;;;;;;;;;16.70;94.10;;;;;;5112774;28;20018;-73
2023/12/11 10:56:49;;;;;;;;;;;16.80;94.40;;;;;;5113351;28;19911;-75
2023/12/11 10:59:15;;;;;;;;;;;17.00;94.30;;;;;;5113207;28;20294;-74
2023/12/11 11:01:42;;;;;;;;;;;17.20;94.30;;;;;;5092308;28;19926;-74
2023/12/11 11:04:09;;;;;;;;;;;17.40;94.30;;;;;;5111425;28;19910;-74
2023/12/11 11:06:46;;;;;;;;;;;17.60;94.30;;;;;;5113293;28;19912;-74
2023/12/11 11:09:15;;;;;;;;;;;17.60;94.10;;;;;;5112139;28;19903;-73
2023/12/11 11:11:44;;;;;;;;;;;17.60;93.90;;;;;;5110468;28;19903;-73
2023/12/11 11:14:29;;;;;;;;;;;17.50;93.90;;;;;;5113464;28;19939;-73
2023/12/11 11:16:55;;;;;;;;;;;17.30;94.00;;;;;;5112249;28;19996;-73
2023/12/11 11:19:20;;;;;;;;;;;17.40;94.30;;;;;;5112984;28;19914;-74
2023/12/11 11:22:06;;;;;;;;;;;17.60;94.40;;;;;;5110447;28;19930;-74
2023/12/11 11:24:34;;;;;;;;;;;17.60;94.40;;;;;;5094775;28;19907;-74
2023/12/11 11:27:00;;;;;;;;;;;17.70;94.40;;;;;;5112771;28;19915;-73
2023/12/11 11:29:52;;;;;;;;;;;17.80;94.40;;;;;;5106604;28;19960;-74
2023/12/11 11:32:18;;;;;;;;;;;17.90;94.50;;;;;;5109204;28;19986;-73
2023/12/11 11:34:44;;;;;;;;;;;17.90;94.40;;;;;;5113056;28;20026;-75
2023/12/11 11:37:20;;;;;;;;;;;18.00;94.40;;;;;;5113009;28;19912;-74
2023/12/11 11:39:59;;;;;;;;;;;17.90;94.30;;;;;;5112257;28;19996;-74
2023/12/11 11:42:25;;;;;;;;;;;17.80;94.30;;;;;;5111816;28;19903;-74
2023/12/11 11:44:58;;;;;;;;;;;17.70;94.30;;;;;;5111508;28;19912;-74
2023/12/11 11:47:27;;;;;;;;;;;17.60;94.30;;;;;;5111307;28;19907;-73
2023/12/11 11:49:53;;;;;;;;;;;17.60;94.60;;;;;;5101731;28;19996;-73
2023/12/11 11:52:22;;;;;;;;;;;17.50;94.40;;;;;;5103318;28;19986;-73
2023/12/11 11:54:47;;;;;;;;;;;17.50;94.50;;;;;;5101103;28;19993;-73
2023/12/11 11:57:13;;;;;;;;;;;17.50;94.60;;;;;;5102052;28;19950;-73
2023/12/11 11:59:44;;;;;;;;;;;17.60;94.60;;;;;;5111186;28;20006;-73
2023/12/11 12:02:10;;;;;;;;;;;17.60;94.70;;;;;;5111250;28;20297;-74
2023/12/11 12:04:35;;;;;;;;;;;17.60;94.60;;;;;;5112198;28;19919;-74
2023/12/11 12:07:02;;;;;;;;;;;17.60;94.60;;;;;;5111014;28;20343;-74
2023/12/11 12:09:29;;;;;;;;;;;17.70;94.70;;;;;;5112701;28;19941;-74
2023/12/11 12:11:55;;;;;;;;;;;17.70;94.60;;;;;;5113292;28;20002;-74
2023/12/11 12:14:21;;;;;;;;;;;17.70;94.60;;;;;;5104071;28;19991;-67
2023/12/11 12:16:47;;;;;;;;;;;17.70;94.60;;;;;;5099189;28;20005;-74
2023/12/11 12:19:15;;;;;;;;;;;17.60;94.60;;;;;;5099386;28;19984;-74
2023/12/11 12:21:54;;;;;;;;;;;17.70;94.80;;;;;;5099876;28;20668;-74
2023/12/11 12:24:20;;;;;;;;;;;17.70;94.50;;;;;;5111080;28;19992;-74
2023/12/11 12:26:47;;;;;;;;;;;17.30;94.00;;;;;;5100771;28;19920;-73
2023/12/11 12:29:13;;;;;;;;;;;16.80;93.70;;;;;;5102291;28;19910;-73
2023/12/11 12:31:39;;;;;;;;;;;16.20;93.20;;;;;;5106495;28;20301;-73
2023/12/11 12:34:06;;;;;;;;;;;15.60;93.20;;;;;;5111689;28;19915;-73
2023/12/11 12:36:31;;;;;;;;;;;15.10;93.20;;;;;;5111176;28;19982;-73
2023/12/11 12:38:57;;;;;;;;;;;14.60;93.30;;;;;;5110512;28;20037;-74
2023/12/11 12:41:22;;;;;;;;;;;14.20;93.40;;;;;;5111207;28;20271;-73
2023/12/11 12:43:48;;;;;;;;;;;13.90;93.40;;;;;;5111072;28;19968;-74
2023/12/11 12:46:14;;;;;;;;;;;13.60;93.50;;;;;;5088136;28;19912;-75
2023/12/11 12:48:40;;;;;;;;;;;13.40;93.60;;;;;;5098203;28;19916;-75
2023/12/11 12:51:09;;;;;;;;;;;13.20;93.70;;;;;;5090381;28;20313;-74
2023/12/11 12:53:45;;;;;;;;;;;13.00;93.70;;;;;;5095676;28;19904;-74
2023/12/11 12:56:20;;;;;;;;;;;12.90;93.70;;;;;;5097830;28;19920;-75
2023/12/11 12:58:49;;;;;;;;;;;12.70;93.70;;;;;;5094366;28;19908;-74
2023/12/11 13:01:15;;;;;;;;;;;12.60;93.70;;;;;;5100721;28;20326;-72
2023/12/11 13:03:41;;;;;;;;;;;12.50;93.70;;;;;;5110676;28;19904;-73
2023/12/11 13:06:07;;;;;;;;;;;12.40;93.70;;;;;;5100804;28;20364;-73
2023/12/11 13:08:42;;;;;;;;;;;12.30;93.70;;;;;;5091485;28;19950;-72
2023/12/11 13:11:08;;;;;;;;;;;12.30;93.80;;;;;;5101774;28;19903;-73
2023/12/11 13:13:34;;;;;;;;;;;12.20;93.80;;;;;;5101817;28;19969;-73
2023/12/11 13:15:59;;;;;;;;;;;12.20;93.90;;;;;;5104685;28;19914;-73
2023/12/11 13:18:25;;;;;;;;;;;12.20;94.00;;;;;;5097417;28;19954;-73
2023/12/11 13:20:50;;;;;;;;;;;12.20;94.10;;;;;;5108443;28;19918;-73
2023/12/11 13:23:16;;;;;;;;;;;12.30;94.10;;;;;;5116608;28;20366;-73
2023/12/11 13:25:42;;;;;;;;;;;12.30;94.10;;;;;;5094374;28;19920;-75
2023/12/11 13:28:07;;;;;;;;;;;12.50;94.40;;;;;;5098954;28;20386;-77
2023/12/11 13:30:33;;;;;;;;;;;12.80;94.60;;;;;;5105331;28;19996;-74
2023/12/11 13:32:59;;;;;;;;;;;13.20;94.90;;;;;;5094852;28;20630;-74
2023/12/11 13:35:24;;;;;;;;;;;13.50;95.10;;;;;;5116007;28;19949;-76
2023/12/11 13:37:50;;;;;;;;;;;13.90;95.20;;;;;;5081499;28;19946;-75
2023/12/11 13:40:17;;;;;;;;;;;14.20;95.20;;;;;;5116628;28;20018;-75
2023/12/11 13:42:43;;;;;;;;;;;14.50;95.20;;;;;;5098723;28;19908;-76
2023/12/11 13:45:08;;;;;;;;;;;14.60;95.10;;;;;;5116839;28;19915;-73
2023/12/11 13:47:34;;;;;;;;;;;14.50;94.80;;;;;;5116815;28;19915;-68
2023/12/11 13:49:59;;;;;;;;;;;14.40;94.80;;;;;;5116633;28;19957;-75
2023/12/11 13:52:25;;;;;;;;;;;14.30;94.70;;;;;;5098485;28;20383;-74
2023/12/11 13:54:51;;;;;;;;;;;14.30;94.70;;;;;;5097965;28;19919;-75
2023/12/11 13:57:18;;;;;;;;;;;14.30;94.80;;;;;;5115982;28;19911;-76
2023/12/11 13:59:43;;;;;;;;;;;14.40;95.00;;;;;;5116028;28;19914;-72
2023/12/11 14:02:09;;;;;;;;;;;14.50;95.20;;;;;;5116004;28;20256;-76
2023/12/11 14:04:34;;;;;;;;;;;14.70;95.20;;;;;;5111979;28;19908;-76
2023/12/11 14:07:00;;;;;;;;;;;14.70;95.20;;;;;;5116290;28;19915;-74
2023/12/11 14:09:26;;;;;;;;;;;14.70;95.20;;;;;;5116925;28;19912;-76
2023/12/11 14:11:54;;;;;;;;;;;14.80;95.20;;;;;;5115670;28;19927;-72
2023/12/11 14:14:20;;;;;;;;;;;14.70;95.00;;;;;;5115693;28;19933;-73
2023/12/11 14:16:46;;;;;;;;;;;14.60;94.80;;;;;;5116213;28;19912;-74
2023/12/11 14:19:11;;;;;;;;;;;14.50;94.70;;;;;;5116523;28;19908;-74